Time;durP1;ratioP1;P1;durP2;ratioP2;P2;SDS_P1;SDS_P2;PMS_P1;PMS_P2;Temp;Humidity;BMP_temperature;BMP_pressure;BME280_temperature;BME280_humidity;BME280_pressure;Samples;Min_cycle;Max_cycle;Signal;HPM_P1;HPM_P2
2023/08/01 00:00:53;;;;;;;4.72;2.40;;;;;;;16.65;100.00;99666.44;5002693;28;20438;-82
2023/08/01 00:03:18;;;;;;;5.20;1.90;;;;;;;16.73;100.00;99670.63;5001714;28;20026;-84
2023/08/01 00:05:44;;;;;;;6.95;2.42;;;;;;;16.57;100.00;99659.41;5004593;28;20558;-84
2023/08/01 00:08:12;;;;;;;6.68;2.63;;;;;;;16.63;100.00;99668.91;5007054;28;20414;-83
2023/08/01 00:10:38;;;;;;;4.97;2.50;;;;;;;16.73;100.00;99653.66;4998206;28;20034;-83
2023/08/01 00:13:04;;;;;;;4.78;2.50;;;;;;;16.68;100.00;99637.28;5001623;28;20078;-84
2023/08/01 00:15:32;;;;;;;9.85;2.75;;;;;;;16.51;100.00;99641.44;4992095;28;20109;-83
2023/08/01 00:17:58;;;;;;;6.00;2.63;;;;;;;16.41;100.00;99641.31;4996732;28;20380;-84
2023/08/01 00:20:23;;;;;;;5.22;2.47;;;;;;;16.60;100.00;99648.00;5000261;28;20076;-83
2023/08/01 00:22:49;;;;;;;7.07;2.55;;;;;;;16.41;100.00;99630.00;5006843;28;20068;-83
2023/08/01 00:25:14;;;;;;;9.23;2.45;;;;;;;16.40;100.00;99630.44;5000034;28;20212;-83
2023/08/01 00:27:40;;;;;;;8.82;2.60;;;;;;;16.45;100.00;99647.63;5002038;28;20457;-83
2023/08/01 00:30:07;;;;;;;9.00;3.50;;;;;;;16.42;100.00;99645.72;4995746;28;20030;-83
2023/08/01 00:32:32;;;;;;;7.10;2.80;;;;;;;16.42;100.00;99633.63;5000969;28;20533;-83
2023/08/01 00:34:57;;;;;;;4.13;2.15;;;;;;;16.44;100.00;99645.25;4998514;28;20062;-83
2023/08/01 00:37:23;;;;;;;6.07;2.70;;;;;;;16.32;100.00;99631.91;4999036;28;20687;-83
2023/08/01 00:39:48;;;;;;;8.32;4.07;;;;;;;16.43;100.00;99633.19;4995558;28;20109;-83
2023/08/01 00:42:14;;;;;;;10.73;3.05;;;;;;;16.18;100.00;99616.97;5000627;28;20502;-84
2023/08/01 00:44:39;;;;;;;4.32;2.42;;;;;;;16.43;100.00;99636.00;5004431;28;20034;-82
2023/08/01 00:47:09;;;;;;;6.57;2.47;;;;;;;16.43;100.00;99627.53;5000335;28;20049;-83
2023/08/01 00:49:35;;;;;;;3.60;2.15;;;;;;;16.46;100.00;99631.47;4999529;28;20026;-82
2023/08/01 00:52:00;;;;;;;7.63;2.70;;;;;;;16.54;100.00;99627.22;4993865;28;20108;-83
2023/08/01 00:54:26;;;;;;;4.75;2.83;;;;;;;16.61;100.00;99620.53;5006897;28;20091;-83
2023/08/01 00:56:51;;;;;;;8.43;3.20;;;;;;;16.51;100.00;99618.81;5016440;28;20052;-83
2023/08/01 00:59:17;;;;;;;8.32;2.75;;;;;;;16.55;100.00;99625.16;5004982;28;20025;-83
2023/08/01 01:01:42;;;;;;;7.13;2.45;;;;;;;16.53;100.00;99624.81;5005482;28;20033;-83
2023/08/01 01:04:08;;;;;;;10.32;2.55;;;;;;;16.29;100.00;99610.22;5013223;28;20037;-82
2023/08/01 01:06:51;;;;;;;7.95;2.40;;;;;;;16.41;100.00;99606.63;5007634;28;20485;-83
2023/08/01 01:09:17;;;;;;;4.85;2.35;;;;;;;16.48;100.00;99597.94;5001651;28;20026;-82
2023/08/01 01:11:44;;;;;;;7.38;2.25;;;;;;;16.60;100.00;99614.09;4995121;28;20505;-83
2023/08/01 01:14:09;;;;;;;9.32;2.70;;;;;;;16.57;100.00;99605.72;4999965;28;20176;-83
2023/08/01 01:16:35;;;;;;;5.40;2.60;;;;;;;16.47;100.00;99587.88;4999202;28;20465;-83
2023/08/01 01:19:00;;;;;;;4.10;3.17;;;;;;;16.49;100.00;99584.63;5001548;28;20691;-83
2023/08/01 01:21:26;;;;;;;3.92;2.55;;;;;;;16.46;100.00;99581.47;5006121;28;20037;-83
2023/08/01 01:23:52;;;;;;;4.32;2.08;;;;;;;16.62;100.00;99588.25;5018849;28;20030;-83
2023/08/01 01:26:21;;;;;;;3.58;2.17;;;;;;;16.43;100.00;99571.03;5007204;28;20093;-83
2023/08/01 01:28:49;;;;;;;5.38;2.83;;;;;;;16.53;100.00;99582.44;5008388;28;20033;-82
2023/08/01 01:31:16;;;;;;;5.40;2.63;;;;;;;16.43;100.00;99558.97;5009003;28;20112;-83
2023/08/01 01:33:41;;;;;;;6.50;2.63;;;;;;;16.29;100.00;99553.75;4993690;28;20459;-82
2023/08/01 01:36:07;;;;;;;5.82;2.20;;;;;;;16.17;100.00;99555.28;4997269;28;20037;-82
2023/08/01 01:38:32;;;;;;;6.60;3.00;;;;;;;16.20;100.00;99557.22;4999776;28;20045;-82
2023/08/01 01:40:57;;;;;;;5.10;2.67;;;;;;;15.92;100.00;99542.72;5015060;28;20478;-82
2023/08/01 01:43:23;;;;;;;5.53;2.53;;;;;;;16.22;100.00;99543.47;4998520;28;20030;-82
2023/08/01 01:45:48;;;;;;;7.97;3.35;;;;;;;16.29;100.00;99562.22;5002017;28;20026;-82
2023/08/01 01:48:14;;;;;;;6.20;2.47;;;;;;;16.14;100.00;99559.03;4995634;28;20026;-81
2023/08/01 01:50:40;;;;;;;7.57;2.45;;;;;;;16.08;100.00;99550.31;4996269;28;20018;-82
2023/08/01 01:53:06;;;;;;;9.10;2.75;;;;;;;16.17;100.00;99558.13;4998634;28;20513;-82
2023/08/01 01:55:31;;;;;;;6.00;2.53;;;;;;;15.95;100.00;99550.28;4995699;28;20022;-82
2023/08/01 01:57:56;;;;;;;4.13;1.92;;;;;;;15.93;100.00;99551.97;4990398;28;20026;-82
2023/08/01 02:00:22;;;;;;;5.65;2.17;;;;;;;15.93;100.00;99554.78;4993554;28;20041;-82
2023/08/01 02:02:47;;;;;;;6.65;2.50;;;;;;;15.90;100.00;99552.88;5007221;28;20121;-83
2023/08/01 02:05:13;;;;;;;9.35;2.58;;;;;;;16.14;100.00;99568.28;5003668;28;20797;-82
2023/08/01 02:07:38;;;;;;;6.72;3.00;;;;;;;16.00;100.00;99558.22;5005431;28;20048;-81
2023/08/01 02:10:06;;;;;;;5.43;2.42;;;;;;;16.10;100.00;99559.13;4996952;28;20555;-82
2023/08/01 02:12:31;;;;;;;7.68;2.00;;;;;;;15.85;100.00;99548.56;5007037;28;20034;-82
2023/08/01 02:14:58;;;;;;;8.70;4.28;;;;;;;16.01;100.00;99548.50;5007562;28;20386;-81
2023/08/01 02:17:23;;;;;;;3.95;2.40;;;;;;;16.19;100.00;99544.34;5002372;28;20343;-81
2023/08/01 02:19:49;;;;;;;9.15;2.63;;;;;;;16.13;100.00;99540.50;5003879;28;20026;-81
2023/08/01 02:22:14;;;;;;;12.85;3.15;;;;;;;16.16;100.00;99546.03;5001793;28;20029;-81
2023/08/01 02:24:40;;;;;;;12.23;3.15;;;;;;;16.16;100.00;99550.91;4996662;28;20028;-82
2023/08/01 02:27:05;;;;;;;7.10;2.78;;;;;;;16.16;100.00;99556.53;4997127;28;20474;-81
2023/08/01 02:29:31;;;;;;;7.00;2.28;;;;;;;16.24;100.00;99553.06;4996969;28;20041;-82
2023/08/01 02:31:56;;;;;;;6.63;2.72;;;;;;;16.09;100.00;99560.38;5006294;28;20423;-82
2023/08/01 02:34:21;;;;;;;6.28;2.65;;;;;;;15.96;100.00;99537.78;5005118;28;20030;-82
2023/08/01 02:36:47;;;;;;;6.82;2.90;;;;;;;15.84;100.00;99541.34;5004167;28;20026;-82
2023/08/01 02:39:12;;;;;;;8.20;2.80;;;;;;;16.04;100.00;99539.16;5006892;28;20030;-82
2023/08/01 02:41:38;;;;;;;10.13;2.45;;;;;;;16.17;100.00;99547.63;5005780;28;20029;-81
2023/08/01 02:44:03;;;;;;;9.85;2.88;;;;;;;15.98;100.00;99548.59;4998339;28;20034;-81
2023/08/01 02:46:29;;;;;;;7.20;2.78;;;;;;;15.62;100.00;99533.47;4999604;28;20595;-82
2023/08/01 02:48:55;;;;;;;8.52;3.05;;;;;;;15.80;100.00;99540.66;4994567;28;20026;-80
2023/08/01 02:51:20;;;;;;;6.95;2.80;;;;;;;15.88;100.00;99544.84;5004531;28;20034;-81
2023/08/01 02:53:46;;;;;;;7.10;2.90;;;;;;;15.87;100.00;99534.78;4999722;28;20051;-81
2023/08/01 02:56:11;;;;;;;8.38;2.75;;;;;;;15.90;100.00;99553.66;5004648;28;20109;-81
2023/08/01 02:58:37;;;;;;;11.02;4.13;;;;;;;15.68;100.00;99539.31;5000362;28;20100;-81
2023/08/01 03:01:10;;;;;;;8.70;3.45;;;;;;;15.71;100.00;99529.22;5003038;28;20086;-81
2023/08/01 03:03:36;;;;;;;8.48;3.90;;;;;;;15.87;100.00;99522.72;5004823;28;20030;-81
2023/08/01 03:06:02;;;;;;;5.05;2.90;;;;;;;15.96;100.00;99526.47;5003363;28;20497;-81
2023/08/01 03:08:27;;;;;;;6.38;3.00;;;;;;;15.90;100.00;99527.47;5004381;28;20057;-81
2023/08/01 03:10:54;;;;;;;5.97;2.63;;;;;;;15.76;100.00;99531.50;5011301;28;20038;-81
2023/08/01 03:13:19;;;;;;;6.32;3.15;;;;;;;15.89;100.00;99537.97;4999405;28;20087;-81
2023/08/01 03:15:45;;;;;;;5.88;2.42;;;;;;;15.95;100.00;99547.47;4994809;28;20362;-81
2023/08/01 03:18:10;;;;;;;8.18;3.17;;;;;;;15.99;100.00;99545.31;4999682;28;20041;-81
2023/08/01 03:20:36;;;;;;;12.52;3.38;;;;;;;15.86;100.00;99550.16;4991790;28;20030;-81
2023/08/01 03:23:01;;;;;;;5.95;2.80;;;;;;;15.65;100.00;99557.94;4997944;28;20034;-81
2023/08/01 03:25:27;;;;;;;13.38;3.28;;;;;;;15.57;100.00;99559.38;4990686;28;20423;-81
2023/08/01 03:27:54;;;;;;;10.35;3.67;;;;;;;15.62;100.00;99575.75;4984269;28;20022;-81
2023/08/01 03:30:22;;;;;;;9.18;4.07;;;;;;;15.64;100.00;99564.84;4998770;28;20116;-81
2023/08/01 03:32:48;;;;;;;9.15;3.60;;;;;;;15.71;100.00;99565.88;5001370;28;20026;-81
2023/08/01 03:35:14;;;;;;;9.05;3.35;;;;;;;15.55;100.00;99561.06;5006158;28;20025;-81
2023/08/01 03:37:40;;;;;;;6.22;3.47;;;;;;;15.73;100.00;99557.78;5001289;28;20109;-81
2023/08/01 03:40:09;;;;;;;12.63;3.17;;;;;;;15.87;100.00;99568.66;5001219;28;20034;-83
2023/08/01 03:42:35;;;;;;;10.95;3.45;;;;;;;15.90;100.00;99569.81;4993980;28;20475;-83
2023/08/01 03:45:00;;;;;;;8.63;3.67;;;;;;;15.81;100.00;99578.91;5002916;28;20825;-83
2023/08/01 03:47:26;;;;;;;8.25;3.40;;;;;;;15.87;100.00;99568.66;4999147;28;20033;-82
2023/08/01 03:49:51;;;;;;;9.00;3.50;;;;;;;15.58;100.00;99566.59;4999331;28;20049;-82
2023/08/01 03:52:17;;;;;;;6.00;3.47;;;;;;;15.92;100.00;99576.59;5003519;28;20112;-82
2023/08/01 03:54:42;;;;;;;8.50;3.22;;;;;;;15.96;100.00;99568.81;5002498;28;20045;-82
2023/08/01 03:57:07;;;;;;;8.93;3.45;;;;;;;15.90;100.00;99576.25;4996805;28;20109;-82
2023/08/01 03:59:33;;;;;;;10.73;3.38;;;;;;;16.05;100.00;99579.44;4988811;28;20076;-82
2023/08/01 04:01:58;;;;;;;5.57;3.15;;;;;;;15.99;100.00;99570.72;4999572;28;20052;-82
2023/08/01 04:04:24;;;;;;;10.60;3.35;;;;;;;16.04;100.00;99575.03;4995578;28;20034;-82
2023/08/01 04:06:50;;;;;;;6.32;2.50;;;;;;;15.96;100.00;99571.63;5003839;28;20130;-82
2023/08/01 04:09:15;;;;;;;7.25;2.38;;;;;;;15.82;100.00;99572.03;4994073;28;20429;-81
2023/08/01 04:11:40;;;;;;;4.55;3.40;;;;;;;15.82;100.00;99560.75;4994851;28;20031;-82
2023/08/01 04:14:06;;;;;;;8.18;2.25;;;;;;;16.04;100.00;99567.38;4994159;28;20117;-81
2023/08/01 04:16:31;;;;;;;5.82;2.63;;;;;;;16.03;100.00;99556.53;5005670;28;20473;-82
2023/08/01 04:18:57;;;;;;;7.45;2.25;;;;;;;15.95;100.00;99547.47;5006487;28;20068;-82
2023/08/01 04:21:22;;;;;;;5.40;2.10;;;;;;;15.93;100.00;99566.88;5003257;28;20089;-81
2023/08/01 04:23:48;;;;;;;5.82;2.08;;;;;;;15.88;100.00;99567.44;5004051;28;20026;-82
2023/08/01 04:26:13;;;;;;;6.30;2.60;;;;;;;15.94;100.00;99556.38;5002904;28;20591;-82
2023/08/01 04:28:38;;;;;;;5.35;2.33;;;;;;;15.72;100.00;99556.19;5001968;28;20221;-81
2023/08/01 04:31:04;;;;;;;7.38;2.35;;;;;;;15.91;100.00;99572.16;5000675;28;20091;-82
2023/08/01 04:33:29;;;;;;;7.70;3.00;;;;;;;16.01;100.00;99582.38;5010845;28;20026;-82
2023/08/01 04:35:55;;;;;;;3.67;2.00;;;;;;;16.17;100.00;99586.34;5002208;28;20501;-80
2023/08/01 04:38:20;;;;;;;4.22;1.60;;;;;;;16.15;100.00;99577.53;5004097;28;20113;-81
2023/08/01 04:40:45;;;;;;;6.68;2.55;;;;;;;16.01;100.00;99573.09;5004004;28;20030;-80
2023/08/01 04:43:11;;;;;;;4.82;2.60;;;;;;;16.14;100.00;99567.50;5003899;28;20049;-82
2023/08/01 04:45:37;;;;;;;5.20;2.20;;;;;;;16.15;100.00;99566.25;5001237;28;20160;-82
2023/08/01 04:48:03;;;;;;;3.95;2.65;;;;;;;15.82;100.00;99572.03;4999534;28;20096;-82
2023/08/01 04:50:28;;;;;;;3.65;1.63;;;;;;;15.94;100.00;99567.66;5001315;28;20473;-83
2023/08/01 04:52:53;;;;;;;2.33;1.58;;;;;;;16.04;100.00;99577.84;5005773;28;20026;-84
2023/08/01 04:55:19;;;;;;;6.57;1.77;;;;;;;16.08;100.00;99577.75;5004099;28;20061;-83
2023/08/01 04:57:45;;;;;;;4.72;1.90;;;;;;;16.10;100.00;99586.56;5002591;28;20394;-83
2023/08/01 05:00:11;;;;;;;6.18;1.95;;;;;;;16.18;100.00;99587.94;5002250;28;20087;-83
2023/08/01 05:02:36;;;;;;;2.28;1.60;;;;;;;16.07;100.00;99573.34;5014173;28;20394;-83
2023/08/01 05:05:02;;;;;;;5.03;2.10;;;;;;;16.17;100.00;99583.53;5000335;28;20026;-81
2023/08/01 05:07:28;;;;;;;5.43;2.45;;;;;;;16.09;100.00;99604.75;5002740;28;20041;-82
2023/08/01 05:09:53;;;;;;;6.50;2.85;;;;;;;15.91;100.00;99586.28;5003489;28;20040;-81
2023/08/01 05:12:18;;;;;;;5.80;2.22;;;;;;;15.98;100.00;99594.56;5006960;28;20116;-82
2023/08/01 05:14:44;;;;;;;11.85;2.75;;;;;;;16.06;100.00;99592.31;5007477;28;20490;-81
2023/08/01 05:17:09;;;;;;;7.72;3.08;;;;;;;15.92;100.00;99596.34;5006542;28;20026;-82
2023/08/01 05:19:35;;;;;;;5.00;2.97;;;;;;;15.76;100.00;99602.03;5006422;28;20092;-82
2023/08/01 05:22:00;;;;;;;10.23;2.95;;;;;;;15.59;100.00;99599.19;5020812;28;20458;-82
2023/08/01 05:24:26;;;;;;;6.38;3.05;;;;;;;15.56;100.00;99611.38;5002986;28;20089;-83
2023/08/01 05:26:51;;;;;;;6.43;1.98;;;;;;;15.45;100.00;99602.38;4999678;28;20030;-82
2023/08/01 05:29:16;;;;;;;5.78;2.03;;;;;;;15.39;100.00;99596.50;5006833;28;20034;-83
2023/08/01 05:31:42;;;;;;;5.88;2.45;;;;;;;15.53;100.00;99600.19;5000586;28;20033;-84
2023/08/01 05:34:07;;;;;;;3.20;1.48;;;;;;;15.77;100.00;99604.41;5008888;28;20830;-83
2023/08/01 05:36:32;;;;;;;3.15;1.35;;;;;;;15.80;100.00;99597.06;5008669;28;20030;-84
2023/08/01 05:38:58;;;;;;;2.33;1.30;;;;;;;15.91;100.00;99603.22;5007482;28;20060;-84
2023/08/01 05:41:23;;;;;;;3.30;1.13;;;;;;;15.88;100.00;99598.47;5006704;28;20087;-85
2023/08/01 05:43:49;;;;;;;1.25;0.90;;;;;;;15.94;100.00;99598.69;5006339;28;20475;-85
2023/08/01 05:46:15;;;;;;;3.35;1.30;;;;;;;15.96;100.00;99599.03;5006118;28;20032;-85
2023/08/01 05:48:41;;;;;;;4.15;1.52;;;;;;;16.00;100.00;99594.91;5005907;28;20104;-85
2023/08/01 05:51:06;;;;;;;1.73;1.05;;;;;;;15.93;100.00;99583.00;5005567;28;20037;-85
2023/08/01 05:53:32;;;;;;;1.63;0.90;;;;;;;15.97;100.00;99595.00;5007469;28;20025;-85
2023/08/01 05:55:57;;;;;;;2.65;1.08;;;;;;;16.03;100.00;99605.28;5004245;28;20104;-84
2023/08/01 05:58:22;;;;;;;2.90;1.10;;;;;;;16.04;100.00;99609.72;5004613;28;20030;-85
2023/08/01 06:00:48;;;;;;;1.55;1.35;;;;;;;15.99;100.00;99604.59;5003967;28;20029;-84
2023/08/01 06:03:14;;;;;;;3.88;0.75;;;;;;;15.89;100.00;99593.59;5008012;28;20402;-84
2023/08/01 06:05:39;;;;;;;2.50;0.82;;;;;;;15.90;100.00;99607.28;5004561;28;20030;-84
2023/08/01 06:08:07;;;;;;;1.38;0.80;;;;;;;15.99;100.00;99598.16;5021747;28;20103;-84
2023/08/01 06:10:33;;;;;;;2.70;0.73;;;;;;;15.97;100.00;99590.13;5007917;28;20482;-84
2023/08/01 06:12:58;;;;;;;0.98;0.70;;;;;;;16.04;100.00;99591.97;4997228;28;20036;-84
2023/08/01 06:15:23;;;;;;;1.50;0.80;;;;;;;16.05;100.00;99602.81;5008854;28;20121;-83
2023/08/01 06:17:49;;;;;;;2.33;1.17;;;;;;;16.05;100.00;99604.84;5010189;28;20030;-83
2023/08/01 06:20:14;;;;;;;3.35;1.45;;;;;;;16.08;100.00;99598.28;5002570;28;20512;-83
2023/08/01 06:22:40;;;;;;;2.55;0.90;;;;;;;16.06;100.00;99600.78;5003423;28;20030;-83
2023/08/01 06:25:05;;;;;;;1.90;0.80;;;;;;;16.14;100.00;99604.19;4991741;28;20454;-84
2023/08/01 06:27:31;;;;;;;5.30;1.20;;;;;;;16.11;100.00;99591.78;5005970;28;20109;-83
2023/08/01 06:29:56;;;;;;;1.42;1.00;;;;;;;16.19;100.00;99603.63;4998457;28;20116;-83
2023/08/01 06:32:22;;;;;;;2.65;1.02;;;;;;;16.11;100.00;99585.34;5005332;28;20026;-83
2023/08/01 06:34:47;;;;;;;2.42;1.35;;;;;;;16.15;100.00;99588.81;5008356;28;20117;-83
2023/08/01 06:37:12;;;;;;;1.92;1.38;;;;;;;15.98;100.00;99585.28;5006711;28;20125;-82
2023/08/01 06:39:38;;;;;;;3.50;1.30;;;;;;;16.05;100.00;99602.03;5008074;28;20030;-83
2023/08/01 06:42:03;;;;;;;3.38;1.50;;;;;;;16.11;100.00;99590.97;5007777;28;20117;-83
2023/08/01 06:44:29;;;;;;;1.77;0.98;;;;;;;16.26;100.00;99594.97;5003413;28;20529;-83
2023/08/01 06:46:54;;;;;;;3.08;1.20;;;;;;;16.17;100.00;99586.34;5016777;28;20128;-83
2023/08/01 06:49:19;;;;;;;3.30;1.55;;;;;;;16.13;100.00;99580.00;5007573;28;20030;-82
2023/08/01 06:51:45;;;;;;;4.35;2.25;;;;;;;16.11;100.00;99588.94;5009347;28;20118;-82
2023/08/01 06:54:10;;;;;;;5.93;2.38;;;;;;;16.02;100.00;99580.31;4998693;28;20474;-82
2023/08/01 06:56:36;;;;;;;5.13;2.30;;;;;;;15.98;100.00;99582.44;5007422;28;20621;-83
2023/08/01 06:59:01;;;;;;;6.90;2.35;;;;;;;16.01;100.00;99590.81;5006020;28;20022;-83
2023/08/01 07:01:26;;;;;;;9.18;2.97;;;;;;;16.11;100.00;99576.88;5007956;28;20489;-83
2023/08/01 07:03:56;;;;;;;9.13;2.72;;;;;;;16.05;100.00;99580.22;5012971;28;20022;-83
2023/08/01 07:06:23;;;;;;;9.23;3.58;;;;;;;15.90;100.00;99572.63;5001065;28;20131;-85
2023/08/01 07:08:48;;;;;;;8.27;2.75;;;;;;;15.84;100.00;99580.84;5009008;28;20079;-84
2023/08/01 07:11:14;;;;;;;9.95;3.53;;;;;;;15.83;100.00;99591.34;4999022;28;20030;-83
2023/08/01 07:13:39;;;;;;;7.30;3.72;;;;;;;15.74;100.00;99584.75;4999221;28;20057;-83
2023/08/01 07:16:05;;;;;;;7.85;3.03;;;;;;;15.74;100.00;99598.84;5005494;28;20030;-84
2023/08/01 07:18:30;;;;;;;10.32;3.33;;;;;;;15.93;100.00;99594.31;5001985;28;20026;-83
2023/08/01 07:21:00;;;;;;;7.78;3.30;;;;;;;16.01;100.00;99596.47;5008099;28;20040;-84
2023/08/01 07:23:25;;;;;;;5.93;2.80;;;;;;;15.96;100.00;99594.22;5008379;28;20482;-84
2023/08/01 07:25:51;;;;;;;8.52;3.83;;;;;;;16.03;100.00;99605.28;5004502;28;20112;-84
2023/08/01 07:28:16;;;;;;;13.05;3.83;;;;;;;16.01;100.00;99596.47;5006872;28;20030;-85
2023/08/01 07:30:42;;;;;;;8.30;2.80;;;;;;;16.13;100.00;99620.34;5006948;28;20057;-85
2023/08/01 07:33:07;;;;;;;8.30;2.90;;;;;;;16.19;100.00;99607.25;5001464;28;20391;-85
2023/08/01 07:35:32;;;;;;;9.73;3.03;;;;;;;16.19;100.00;99612.91;4997303;28;20057;-85
2023/08/01 07:37:58;;;;;;;13.57;4.07;;;;;;;16.16;100.00;99618.66;5006736;28;20398;-85
2023/08/01 07:40:23;;;;;;;6.10;2.60;;;;;;;16.22;100.00;99611.22;5008394;28;20112;-85
2023/08/01 07:42:50;;;;;;;9.00;3.15;;;;;;;16.36;100.00;99616.44;5005201;28;20037;-85
2023/08/01 07:45:15;;;;;;;9.00;2.97;;;;;;;16.45;100.00;99610.94;5008197;28;20447;-85
2023/08/01 07:47:41;;;;;;;10.68;5.40;;;;;;;16.42;100.00;99603.38;5005897;28;20116;-85
2023/08/01 07:50:06;;;;;;;8.45;3.75;;;;;;;16.40;100.00;99599.38;5006570;28;20030;-84
2023/08/01 07:52:32;;;;;;;6.10;3.17;;;;;;;16.48;100.00;99614.88;5000429;28;20026;-84
2023/08/01 07:54:58;;;;;;;8.35;3.55;;;;;;;16.60;100.00;99616.94;5001432;28;20026;-84
2023/08/01 07:57:23;;;;;;;7.50;3.03;;;;;;;16.58;100.00;99607.34;5004195;28;20386;-83
2023/08/01 07:59:49;;;;;;;7.47;3.20;;;;;;;16.70;100.00;99611.41;5007444;28;20411;-83
2023/08/01 08:02:14;;;;;;;12.57;2.92;;;;;;;16.71;100.00;99619.44;5006077;28;20033;-83
2023/08/01 08:04:40;;;;;;;6.68;2.63;;;;;;;16.88;100.00;99617.31;5006122;28;20041;-83
2023/08/01 08:07:05;;;;;;;10.80;3.40;;;;;;;16.79;100.00;99620.00;5006464;28;20052;-83
2023/08/01 08:09:30;;;;;;;10.57;2.92;;;;;;;16.82;100.00;99614.28;5004620;28;20108;-83
2023/08/01 08:11:58;;;;;;;5.50;2.60;;;;;;;16.79;100.00;99612.31;5003448;28;20041;-83
2023/08/01 08:14:26;;;;;;;5.20;3.00;;;;;;;16.90;100.00;99614.81;5005642;28;20029;-83
2023/08/01 08:16:51;;;;;;;10.23;4.43;;;;;;;17.09;100.00;99621.50;4978932;28;20026;-83
2023/08/01 08:19:17;;;;;;;5.60;3.15;;;;;;;17.37;100.00;99608.47;4996780;28;20030;-83
2023/08/01 08:21:42;;;;;;;8.48;3.08;;;;;;;17.21;100.00;99598.06;5000129;28;20022;-82
2023/08/01 08:24:08;;;;;;;4.10;2.38;;;;;;;17.11;100.00;99604.09;4981677;28;20037;-83
2023/08/01 08:26:37;;;;;;;7.95;2.88;;;;;;;16.96;100.00;99609.41;4998775;28;20037;-82
2023/08/01 08:29:04;;;;;;;10.77;2.78;;;;;;;16.82;100.00;99624.78;5001034;28;20030;-83
2023/08/01 08:31:30;;;;;;;7.85;2.60;;;;;;;16.76;100.00;99613.22;4996634;28;20034;-83
2023/08/01 08:33:56;;;;;;;5.95;2.33;;;;;;;16.71;100.00;99625.06;4999411;28;20029;-83
2023/08/01 08:36:21;;;;;;;10.18;2.85;;;;;;;16.67;100.00;99630.03;4993895;28;20544;-83
2023/08/01 08:38:47;;;;;;;6.25;2.50;;;;;;;16.73;100.00;99619.75;4997586;28;20022;-83
2023/08/01 08:41:21;;;;;;;8.38;2.70;;;;;;;16.80;100.00;99630.91;4997242;28;20038;-83
2023/08/01 08:43:47;;;;;;;10.18;2.75;;;;;;;16.84;100.00;99628.75;5002648;28;20029;-84
2023/08/01 08:46:16;;;;;;;4.30;1.98;;;;;;;16.98;100.00;99627.50;5009758;28;20033;-82
2023/08/01 08:48:42;;;;;;;6.50;2.47;;;;;;;17.09;100.00;99629.97;5009868;28;20079;-83
2023/08/01 08:51:09;;;;;;;9.45;2.75;;;;;;;17.09;100.00;99615.06;5008479;28;20045;-83
2023/08/01 08:53:35;;;;;;;9.25;2.90;;;;;;;17.09;100.00;99615.84;4993706;28;20037;-83
2023/08/01 08:56:02;;;;;;;6.70;2.92;;;;;;;17.20;100.00;99635.28;5008749;28;20018;-83
2023/08/01 08:58:31;;;;;;;5.20;3.80;;;;;;;17.36;100.00;99628.72;5009495;28;20484;-83
2023/08/01 09:00:58;;;;;;;13.75;4.50;;;;;;;17.37;100.00;99638.75;5024995;28;20371;-83
2023/08/01 09:03:23;;;;;;;7.32;2.50;;;;;;;17.42;100.00;99630.50;5025792;28;20091;-82
2023/08/01 09:05:51;;;;;;;7.07;2.67;;;;;;;17.35;100.00;99642.06;5009505;28;20041;-83
2023/08/01 09:08:19;;;;;;;12.20;2.58;;;;;;;17.41;100.00;99648.72;5006509;28;20046;-83
2023/08/01 09:10:45;;;;;;;7.13;2.58;;;;;;;17.18;100.00;99635.75;5015812;28;20124;-83
2023/08/01 09:13:11;;;;;;;7.88;2.60;;;;;;;17.07;100.00;99635.28;5010603;28;20541;-84
2023/08/01 09:15:37;;;;;;;9.40;2.45;;;;;;;16.98;100.00;99621.06;5008038;28;20014;-83
2023/08/01 09:18:06;;;;;;;5.20;2.33;;;;;;;17.02;100.00;99661.31;5009766;28;20025;-82
2023/08/01 09:20:48;;;;;;;16.85;3.88;;;;;;;17.14;100.00;99663.34;5010611;28;20445;-82
2023/08/01 09:23:15;;;;;;;9.33;2.50;;;;;;;17.31;100.00;99661.19;5008840;28;20033;-82
2023/08/01 09:25:41;;;;;;;6.55;2.53;;;;;;;17.39;100.00;99670.22;5010200;28;20556;-82
2023/08/01 09:28:20;;;;;;;10.77;3.00;;;;;;;17.33;100.00;99663.53;5003884;28;20113;-82
2023/08/01 09:30:50;;;;;;;7.80;2.90;;;;;;;17.21;100.00;99663.09;5009372;28;20163;-82
2023/08/01 09:33:16;;;;;;;11.00;3.25;;;;;;;17.09;100.00;99678.03;5004761;28;20041;-83
2023/08/01 09:35:44;;;;;;;7.00;3.45;;;;;;;17.17;100.00;99684.25;5005490;28;20382;-82
2023/08/01 09:38:10;;;;;;;6.38;2.42;;;;;;;17.14;100.00;99680.31;5000679;28;20037;-82
2023/08/01 09:40:37;;;;;;;6.63;2.80;;;;;;;16.90;100.00;99693.19;5024913;28;20044;-82
2023/08/01 09:43:02;;;;;;;7.63;2.67;;;;;;;16.86;100.00;99688.44;5002172;28;20113;-82
2023/08/01 09:45:28;;;;;;;3.97;2.50;;;;;;;16.65;100.00;99701.16;4999955;28;20112;-82
2023/08/01 09:47:53;;;;;;;5.43;1.92;;;;;;;16.71;100.00;99709.84;4994611;28;20027;-82
2023/08/01 09:50:23;;;;;;;5.10;2.55;;;;;;;16.67;100.00;99709.16;4998811;28;20040;-82
2023/08/01 09:52:52;;;;;;;5.85;2.45;;;;;;;16.58;100.00;99717.50;5006809;28;20537;-83
2023/08/01 09:55:32;;;;;;;12.65;2.65;;;;;;;16.44;100.00;99711.03;5004692;28;20136;-82
2023/08/01 09:57:59;;;;;;;6.20;2.03;;;;;;;16.54;100.00;99716.81;4993217;28;20049;-83
2023/08/01 10:00:29;;;;;;;7.07;2.00;;;;;;;16.43;100.00;99726.38;4998806;28;20029;-83
2023/08/01 10:03:00;;;;;;;3.95;1.83;;;;;;;16.54;100.00;99722.47;5007369;28;20056;-83
2023/08/01 10:05:29;;;;;;;5.20;2.40;;;;;;;16.34;100.00;99726.25;5006932;28;20037;-83
2023/08/01 10:07:58;;;;;;;7.28;2.40;;;;;;;16.44;100.00;99732.81;5007148;28;20368;-83
2023/08/01 10:10:25;;;;;;;2.75;1.85;;;;;;;16.39;100.00;99717.22;5003914;28;20508;-84
2023/08/01 10:12:51;;;;;;;3.50;2.33;;;;;;;16.34;100.00;99720.59;5000747;28;20061;-84
2023/08/01 10:15:17;;;;;;;3.92;1.70;;;;;;;16.21;100.00;99723.38;4994776;28;20032;-84
2023/08/01 10:17:44;;;;;;;3.70;1.40;;;;;;;16.15;100.00;99729.97;4999941;28;20074;-84
2023/08/01 10:20:12;;;;;;;2.72;1.38;;;;;;;16.04;100.00;99736.72;5003525;28;20026;-85
2023/08/01 10:22:38;;;;;;;5.28;1.33;;;;;;;16.01;100.00;99731.94;5001856;28;20385;-86
2023/08/01 10:25:05;;;;;;;3.28;1.15;;;;;;;16.02;100.00;99725.06;4994470;28;20025;-87
2023/08/01 10:27:30;;;;;;;3.22;1.63;;;;;;;16.10;100.00;99733.34;5005855;28;20490;-85
2023/08/01 10:29:57;;;;;;;4.95;1.38;;;;;;;15.98;100.00;99727.19;5008363;28;20029;-86
2023/08/01 10:32:37;;;;;;;3.78;1.08;;;;;;;16.19;100.00;99730.66;5005462;28;20037;-88
2023/08/01 10:35:04;;;;;;;1.63;1.50;;;;;;;16.29;100.00;99728.81;5001341;28;20022;-86
2023/08/01 10:37:42;;;;;;;3.47;1.50;;;;;;;16.30;100.00;99736.06;5001686;28;20037;-87
2023/08/01 10:40:09;;;;;;;2.85;1.20;;;;;;;16.32;100.00;99740.00;5008198;28;20033;-87
2023/08/01 10:42:45;;;;;;;4.38;1.40;;;;;;;16.34;100.00;99739.53;4999596;28;20022;-86
2023/08/01 10:45:21;;;;;;;4.70;2.00;;;;;;;16.34;100.00;99734.72;5009316;28;20491;-86
2023/08/01 10:47:48;;;;;;;5.57;2.00;;;;;;;16.40;100.00;99730.09;5004996;28;20095;-86
2023/08/01 10:50:18;;;;;;;8.52;2.00;;;;;;;16.69;100.00;99751.88;5001455;28;20517;-86
2023/08/01 10:52:43;;;;;;;7.10;2.22;;;;;;;16.71;100.00;99746.56;5015160;28;20021;-85
2023/08/01 10:55:10;;;;;;;4.55;2.03;;;;;;;16.74;100.00;99759.00;5004758;28;20050;-85
2023/08/01 10:57:39;;;;;;;8.13;2.45;;;;;;;16.79;100.00;99755.66;5007806;28;20097;-85
2023/08/01 11:00:09;;;;;;;7.20;2.20;;;;;;;16.85;100.00;99757.50;5005724;28;20021;-85
2023/08/01 11:02:36;;;;;;;6.93;2.00;;;;;;;16.85;100.00;99754.66;5015216;28;20533;-86
2023/08/01 11:05:06;;;;;;;4.05;1.90;;;;;;;16.87;100.00;99765.53;5006900;28;20113;-85
2023/08/01 11:07:34;;;;;;;5.90;2.55;;;;;;;16.69;100.00;99768.81;5023592;28;20050;-84
2023/08/01 11:10:03;;;;;;;6.07;2.72;;;;;;;16.76;100.00;99767.84;5002039;28;20483;-85
2023/08/01 11:12:30;;;;;;;6.95;2.67;;;;;;;16.67;100.00;99762.84;5011117;28;20050;-87
2023/08/01 11:15:03;;;;;;;6.05;2.47;;;;;;;16.77;100.00;99758.91;4996634;28;20022;-85
2023/08/01 11:17:29;;;;;;;6.03;3.47;;;;;;;16.77;100.00;99770.22;4995257;28;20029;-85
2023/08/01 11:20:09;;;;;;;4.65;2.83;;;;;;;16.93;100.00;99771.41;5006757;28;20026;-84